Time;durP1;ratioP1;P1;durP2;ratioP2;P2;SDS_P1;SDS_P2;PMS_P1;PMS_P2;Temp;Humidity;BMP_temperature;BMP_pressure;BME280_temperature;BME280_humidity;BME280_pressure;Samples;Min_cycle;Max_cycle;Signal;HPM_P1;HPM_P2
2023/05/05 00:00:50;;;;;;;;;;;13.30;99.90;;;;;;4920639;29;19917;-75
2023/05/05 00:03:17;;;;;;;;;;;13.30;99.90;;;;;;4938052;29;20287;-79
2023/05/05 00:05:42;;;;;;;;;;;13.20;99.90;;;;;;4937579;29;19919;-76
2023/05/05 00:08:08;;;;;;;;;;;13.20;99.90;;;;;;4937712;29;19921;-75
2023/05/05 00:10:33;;;;;;;;;;;13.20;99.90;;;;;;4920483;29;19961;-76
2023/05/05 00:12:59;;;;;;;;;;;13.10;99.90;;;;;;4937481;29;19918;-78
2023/05/05 00:15:25;;;;;;;;;;;13.20;99.90;;;;;;4920438;29;19917;-77
2023/05/05 00:17:50;;;;;;;;;;;13.10;99.90;;;;;;4920360;29;20013;-76
2023/05/05 00:20:16;;;;;;;;;;;13.00;99.90;;;;;;4937191;29;19911;-78
2023/05/05 00:22:42;;;;;;;;;;;12.90;99.90;;;;;;4937534;29;19911;-76
2023/05/05 00:25:07;;;;;;;;;;;12.80;99.90;;;;;;4937332;29;19966;-76
2023/05/05 00:27:33;;;;;;;;;;;12.80;99.90;;;;;;4937238;29;20367;-77
2023/05/05 00:29:58;;;;;;;;;;;12.80;99.90;;;;;;4936887;29;19969;-76
2023/05/05 00:32:24;;;;;;;;;;;12.90;99.90;;;;;;4937320;29;19915;-78
2023/05/05 00:34:50;;;;;;;;;;;13.00;99.90;;;;;;4937518;29;19997;-76
2023/05/05 00:37:16;;;;;;;;;;;13.10;99.90;;;;;;4937036;29;19942;-78
2023/05/05 00:39:42;;;;;;;;;;;13.10;99.90;;;;;;4937022;29;19957;-77
2023/05/05 00:42:08;;;;;;;;;;;13.10;99.90;;;;;;4936984;29;19915;-75
2023/05/05 00:44:40;;;;;;;;;;;13.10;99.90;;;;;;4936952;29;19918;-79
2023/05/05 00:47:09;;;;;;;;;;;13.20;99.90;;;;;;4937076;29;20273;-76
2023/05/05 00:49:35;;;;;;;;;;;13.20;99.90;;;;;;4937192;29;19910;-77
2023/05/05 00:52:02;;;;;;;;;;;13.20;99.90;;;;;;4937045;29;19918;-79
2023/05/05 00:54:28;;;;;;;;;;;13.30;99.90;;;;;;4936473;29;19954;-74
2023/05/05 00:56:53;;;;;;;;;;;13.40;99.90;;;;;;4936906;29;19948;-77
2023/05/05 00:59:19;;;;;;;;;;;13.30;99.90;;;;;;4936748;29;19911;-77
2023/05/05 01:01:45;;;;;;;;;;;13.30;99.90;;;;;;4936743;29;19966;-76
2023/05/05 01:04:10;;;;;;;;;;;13.40;99.90;;;;;;4936903;29;19911;-76
2023/05/05 01:06:39;;;;;;;;;;;13.40;99.90;;;;;;4936693;29;20021;-75
2023/05/05 01:09:11;;;;;;;;;;;13.40;99.90;;;;;;4936614;29;19910;-78
2023/05/05 01:11:43;;;;;;;;;;;13.40;99.90;;;;;;4936511;29;20009;-79
2023/05/05 01:14:13;;;;;;;;;;;13.40;99.90;;;;;;4936533;29;19915;-78
2023/05/05 01:16:41;;;;;;;;;;;13.40;99.90;;;;;;4936835;29;19965;-78
2023/05/05 01:19:14;;;;;;;;;;;13.40;99.90;;;;;;4936641;29;20039;-78
2023/05/05 01:21:42;;;;;;;;;;;13.40;99.90;;;;;;4936525;29;20378;-80
2023/05/05 01:24:10;;;;;;;;;;;13.50;99.90;;;;;;4936920;29;20001;-79
2023/05/05 01:26:35;;;;;;;;;;;13.60;99.90;;;;;;4936393;29;19965;-75
2023/05/05 01:29:26;;;;;;;;;;;13.60;99.90;;;;;;4936541;29;19975;-79
2023/05/05 01:32:03;;;;;;;;;;;13.70;99.90;;;;;;4936471;29;19915;-82
2023/05/05 01:34:33;;;;;;;;;;;13.70;99.90;;;;;;4936883;29;19922;-78
2023/05/05 01:37:05;;;;;;;;;;;13.80;99.90;;;;;;4936656;29;19921;-74
2023/05/05 01:39:32;;;;;;;;;;;13.90;99.90;;;;;;4936368;29;20363;-76
2023/05/05 01:42:01;;;;;;;;;;;14.10;99.90;;;;;;4938688;29;19910;-77
2023/05/05 01:44:28;;;;;;;;;;;14.10;99.90;;;;;;4923107;29;19918;-79
2023/05/05 01:46:54;;;;;;;;;;;14.10;99.90;;;;;;4940133;29;19982;-75
2023/05/05 01:49:20;;;;;;;;;;;14.00;99.90;;;;;;4923030;29;20282;-78
2023/05/05 01:51:46;;;;;;;;;;;13.80;99.90;;;;;;4940111;29;19911;-76
2023/05/05 01:54:12;;;;;;;;;;;13.80;99.90;;;;;;4940063;29;20427;-77
2023/05/05 01:56:38;;;;;;;;;;;13.70;99.90;;;;;;4922649;29;19970;-77
2023/05/05 01:59:05;;;;;;;;;;;13.50;99.90;;;;;;4940043;29;19917;-76
2023/05/05 02:01:34;;;;;;;;;;;13.60;99.90;;;;;;4939864;29;19949;-77
2023/05/05 02:04:00;;;;;;;;;;;13.60;99.90;;;;;;4922708;29;19942;-79
2023/05/05 02:06:28;;;;;;;;;;;13.60;99.90;;;;;;4939979;29;19962;-79
2023/05/05 02:08:57;;;;;;;;;;;13.70;99.90;;;;;;4939956;29;19958;-79
2023/05/05 02:11:22;;;;;;;;;;;13.80;99.90;;;;;;4939833;29;20355;-75
2023/05/05 02:13:49;;;;;;;;;;;13.80;99.90;;;;;;4939684;29;19965;-79
2023/05/05 02:16:15;;;;;;;;;;;13.70;99.90;;;;;;4939949;29;19918;-79
2023/05/05 02:18:41;;;;;;;;;;;13.70;99.90;;;;;;4939582;29;20336;-76
2023/05/05 02:21:07;;;;;;;;;;;13.70;99.90;;;;;;4922470;29;20001;-79
2023/05/05 02:23:32;;;;;;;;;;;13.60;99.90;;;;;;4939497;29;19965;-77
2023/05/05 02:26:09;;;;;;;;;;;13.70;99.90;;;;;;4939635;29;19954;-79
2023/05/05 02:28:53;;;;;;;;;;;13.70;99.90;;;;;;4939433;29;20364;-77
2023/05/05 02:31:20;;;;;;;;;;;13.80;99.90;;;;;;4939526;29;19914;-76
2023/05/05 02:33:45;;;;;;;;;;;13.80;99.90;;;;;;4939373;29;19911;-76
2023/05/05 02:36:13;;;;;;;;;;;13.80;99.90;;;;;;4939784;29;19914;-78
2023/05/05 02:38:40;;;;;;;;;;;13.70;99.90;;;;;;4939275;29;19958;-78
2023/05/05 02:41:08;;;;;;;;;;;13.80;99.90;;;;;;4939264;29;19911;-78
2023/05/05 02:43:35;;;;;;;;;;;13.90;99.90;;;;;;4939117;29;19918;-77
2023/05/05 02:46:01;;;;;;;;;;;13.80;99.90;;;;;;4939010;29;19919;-78
2023/05/05 02:48:28;;;;;;;;;;;13.80;99.90;;;;;;4939364;29;20005;-78
2023/05/05 02:50:54;;;;;;;;;;;13.70;99.90;;;;;;4939036;29;20287;-76
2023/05/05 02:53:23;;;;;;;;;;;13.70;99.90;;;;;;4938829;29;19936;-78
2023/05/05 02:55:53;;;;;;;;;;;13.80;99.90;;;;;;4938548;29;20054;-78
2023/05/05 02:58:25;;;;;;;;;;;13.80;99.90;;;;;;4939049;29;19914;-80
2023/05/05 03:01:06;;;;;;;;;;;13.80;99.90;;;;;;4938954;29;19911;-80
2023/05/05 03:03:39;;;;;;;;;;;13.90;99.90;;;;;;4940409;29;19914;-76
2023/05/05 03:06:18;;;;;;;;;;;14.00;99.90;;;;;;4923098;29;20082;-79
2023/05/05 03:08:47;;;;;;;;;;;14.20;99.90;;;;;;4939753;29;19911;-76
2023/05/05 03:11:15;;;;;;;;;;;14.20;99.90;;;;;;4938751;29;20385;-77
2023/05/05 03:13:41;;;;;;;;;;;14.30;99.90;;;;;;4938665;29;19918;-77
2023/05/05 03:16:07;;;;;;;;;;;14.30;99.90;;;;;;4921480;29;19911;-79
2023/05/05 03:18:34;;;;;;;;;;;14.30;99.90;;;;;;4938574;29;19914;-77
2023/05/05 03:21:06;;;;;;;;;;;14.30;99.90;;;;;;4938622;29;20382;-80
2023/05/05 03:23:32;;;;;;;;;;;14.20;99.90;;;;;;4938549;29;19917;-76
2023/05/05 03:25:58;;;;;;;;;;;14.20;99.90;;;;;;4938333;29;20299;-76
2023/05/05 03:28:23;;;;;;;;;;;14.20;99.90;;;;;;4938765;29;19979;-81
2023/05/05 03:30:49;;;;;;;;;;;14.10;99.90;;;;;;4938370;29;19910;-80
2023/05/05 03:33:15;;;;;;;;;;;14.10;99.90;;;;;;4938155;29;19911;-76
2023/05/05 03:35:41;;;;;;;;;;;14.10;99.90;;;;;;4938793;29;19917;-76
2023/05/05 03:38:06;;;;;;;;;;;14.10;99.90;;;;;;4938434;29;19911;-78
2023/05/05 03:40:32;;;;;;;;;;;14.20;99.90;;;;;;4938206;29;19911;-76
2023/05/05 03:42:57;;;;;;;;;;;14.20;99.90;;;;;;4938204;29;20395;-77
2023/05/05 03:45:23;;;;;;;;;;;14.20;99.90;;;;;;4938123;29;19915;-76
2023/05/05 03:47:49;;;;;;;;;;;14.30;99.90;;;;;;4938025;29;20331;-77
2023/05/05 03:50:15;;;;;;;;;;;14.20;99.90;;;;;;4938168;29;19915;-73
2023/05/05 03:52:40;;;;;;;;;;;14.20;99.90;;;;;;4938414;29;19917;-76
2023/05/05 03:55:06;;;;;;;;;;;14.20;99.90;;;;;;4937616;29;19919;-77
2023/05/05 03:57:33;;;;;;;;;;;14.10;99.90;;;;;;4938093;29;20278;-74
2023/05/05 03:59:59;;;;;;;;;;;14.10;99.90;;;;;;4937802;29;19919;-77
2023/05/05 04:02:24;;;;;;;;;;;14.00;99.90;;;;;;4937675;29;20372;-75
2023/05/05 04:04:50;;;;;;;;;;;13.90;99.90;;;;;;4937015;29;19962;-74
2023/05/05 04:07:15;;;;;;;;;;;13.80;99.90;;;;;;4937694;29;20286;-78
2023/05/05 04:09:43;;;;;;;;;;;13.80;99.90;;;;;;4937840;29;19911;-81
2023/05/05 04:12:09;;;;;;;;;;;13.70;99.90;;;;;;4937528;29;19921;-77
2023/05/05 04:14:35;;;;;;;;;;;13.70;99.90;;;;;;4937664;29;20435;-77
2023/05/05 04:17:00;;;;;;;;;;;13.60;99.90;;;;;;4937535;29;19950;-79
2023/05/05 04:19:26;;;;;;;;;;;13.50;99.90;;;;;;4937354;29;20395;-77
2023/05/05 04:21:51;;;;;;;;;;;13.50;99.90;;;;;;4937357;29;19915;-77
2023/05/05 04:24:21;;;;;;;;;;;13.50;99.90;;;;;;4937382;29;20278;-75
2023/05/05 04:26:47;;;;;;;;;;;13.40;99.90;;;;;;4937234;29;19921;-74
2023/05/05 04:29:13;;;;;;;;;;;13.40;99.90;;;;;;4937426;29;20331;-77
2023/05/05 04:31:38;;;;;;;;;;;13.40;99.90;;;;;;4937151;29;19915;-78
2023/05/05 04:34:04;;;;;;;;;;;13.30;99.90;;;;;;4937210;29;19959;-77
2023/05/05 04:36:29;;;;;;;;;;;13.30;99.90;;;;;;4937651;29;19918;-77
2023/05/05 04:38:55;;;;;;;;;;;13.30;99.90;;;;;;4937252;29;19911;-80
2023/05/05 04:41:20;;;;;;;;;;;13.20;99.90;;;;;;4919974;29;19911;-76
2023/05/05 04:43:46;;;;;;;;;;;13.30;99.90;;;;;;4936996;29;19917;-79
2023/05/05 04:46:12;;;;;;;;;;;13.30;99.90;;;;;;4936791;29;19921;-74
2023/05/05 04:48:37;;;;;;;;;;;13.20;99.90;;;;;;4936898;29;20327;-77
2023/05/05 04:51:04;;;;;;;;;;;13.30;99.90;;;;;;4919809;29;19911;-77
2023/05/05 04:53:29;;;;;;;;;;;13.40;99.90;;;;;;4936896;29;19911;-75
2023/05/05 04:55:55;;;;;;;;;;;13.40;99.90;;;;;;4936444;29;20315;-77
2023/05/05 04:58:20;;;;;;;;;;;13.30;99.90;;;;;;4936980;29;19954;-76
2023/05/05 05:00:46;;;;;;;;;;;13.30;99.90;;;;;;4936797;29;19911;-78
2023/05/05 05:03:12;;;;;;;;;;;13.40;99.90;;;;;;4936575;29;19947;-75
2023/05/05 05:05:37;;;;;;;;;;;13.40;99.90;;;;;;4937057;29;19918;-74
2023/05/05 05:08:03;;;;;;;;;;;13.50;99.90;;;;;;4936361;29;19995;-78
2023/05/05 05:10:28;;;;;;;;;;;13.60;99.90;;;;;;4936799;29;20274;-77
2023/05/05 05:12:54;;;;;;;;;;;13.60;99.90;;;;;;4936632;29;19911;-76
2023/05/05 05:15:19;;;;;;;;;;;13.60;99.90;;;;;;4937575;29;19967;-75
2023/05/05 05:17:45;;;;;;;;;;;13.60;99.90;;;;;;4937795;29;19946;-76
2023/05/05 05:20:11;;;;;;;;;;;13.70;99.90;;;;;;4937518;29;19953;-77
2023/05/05 05:22:37;;;;;;;;;;;13.80;99.90;;;;;;4936673;29;19910;-78
2023/05/05 05:25:03;;;;;;;;;;;14.00;99.90;;;;;;4936991;29;19911;-76
2023/05/05 05:27:29;;;;;;;;;;;14.10;99.90;;;;;;4936332;29;19915;-77
2023/05/05 05:29:54;;;;;;;;;;;14.10;99.90;;;;;;4936409;29;20383;-75
2023/05/05 05:32:20;;;;;;;;;;;14.20;99.90;;;;;;4936924;29;19918;-73
2023/05/05 05:34:45;;;;;;;;;;;14.20;99.90;;;;;;4936352;29;19957;-77
2023/05/05 05:37:11;;;;;;;;;;;14.10;99.90;;;;;;4936915;29;19947;-81
2023/05/05 05:39:36;;;;;;;;;;;14.10;99.90;;;;;;4936377;29;20325;-79
2023/05/05 05:42:02;;;;;;;;;;;14.10;99.90;;;;;;4936360;29;19934;-80
2023/05/05 05:44:28;;;;;;;;;;;14.20;99.90;;;;;;4936217;29;19915;-77
2023/05/05 05:46:53;;;;;;;;;;;14.30;99.90;;;;;;4936140;29;19962;-77
2023/05/05 05:49:19;;;;;;;;;;;14.40;99.90;;;;;;4936425;29;19910;-76
2023/05/05 05:51:44;;;;;;;;;;;14.50;99.90;;;;;;4936192;29;20423;-78
2023/05/05 05:54:10;;;;;;;;;;;14.50;99.90;;;;;;4935849;29;19980;-78
2023/05/05 05:56:36;;;;;;;;;;;14.60;99.90;;;;;;4936227;29;20324;-77
2023/05/05 05:59:03;;;;;;;;;;;14.70;99.90;;;;;;4936264;29;19939;-76
2023/05/05 06:01:29;;;;;;;;;;;14.90;99.90;;;;;;4936185;29;19967;-79
2023/05/05 06:03:54;;;;;;;;;;;14.90;99.90;;;;;;4936146;29;19911;-75
2023/05/05 06:06:20;;;;;;;;;;;14.80;99.90;;;;;;4936290;29;19973;-77
2023/05/05 06:08:45;;;;;;;;;;;14.90;99.90;;;;;;4936083;29;20316;-76
2023/05/05 06:11:11;;;;;;;;;;;15.10;99.90;;;;;;4936375;29;20390;-80
2023/05/05 06:13:36;;;;;;;;;;;15.10;99.90;;;;;;4936048;29;19910;-78
2023/05/05 06:16:02;;;;;;;;;;;15.30;99.90;;;;;;4936048;29;19915;-78
2023/05/05 06:18:28;;;;;;;;;;;15.30;99.90;;;;;;4936002;29;20015;-74
2023/05/05 06:20:53;;;;;;;;;;;15.30;99.90;;;;;;4918952;29;20291;-79
2023/05/05 06:23:19;;;;;;;;;;;15.40;99.90;;;;;;4936170;29;19918;-78
2023/05/05 06:25:44;;;;;;;;;;;15.50;99.90;;;;;;4918766;29;19915;-77
2023/05/05 06:28:10;;;;;;;;;;;15.70;99.90;;;;;;4938331;29;19911;-79
2023/05/05 06:30:35;;;;;;;;;;;16.10;99.90;;;;;;4922375;29;19911;-78
2023/05/05 06:33:01;;;;;;;;;;;16.40;99.90;;;;;;4939382;29;20464;-80
2023/05/05 06:35:26;;;;;;;;;;;16.20;99.90;;;;;;4939869;29;19895;-81
2023/05/05 06:37:52;;;;;;;;;;;16.30;99.90;;;;;;4939344;29;19930;-77
2023/05/05 06:40:18;;;;;;;;;;;16.30;99.90;;;;;;4939321;29;19915;-79
2023/05/05 06:42:43;;;;;;;;;;;16.10;99.90;;;;;;4939189;29;19918;-77
2023/05/05 06:45:09;;;;;;;;;;;16.10;99.90;;;;;;4939222;29;19923;-78
2023/05/05 06:47:35;;;;;;;;;;;16.20;99.90;;;;;;4939117;29;20001;-77
2023/05/05 06:50:00;;;;;;;;;;;16.40;99.90;;;;;;4939086;29;19911;-79
2023/05/05 06:52:26;;;;;;;;;;;16.40;99.90;;;;;;4939013;29;19918;-75
2023/05/05 06:54:52;;;;;;;;;;;16.70;99.90;;;;;;4938602;29;19923;-79
2023/05/05 06:57:17;;;;;;;;;;;16.80;99.90;;;;;;4939369;29;19911;-77
2023/05/05 06:59:43;;;;;;;;;;;17.40;99.90;;;;;;4921769;29;19918;-76
2023/05/05 07:02:08;;;;;;;;;;;18.20;99.90;;;;;;4939014;29;20371;-78
2023/05/05 07:04:34;;;;;;;;;;;18.90;99.90;;;;;;4938815;29;19910;-78
2023/05/05 07:07:00;;;;;;;;;;;20.20;99.90;;;;;;4938688;29;19926;-77
2023/05/05 07:09:25;;;;;;;;;;;20.50;99.90;;;;;;4938747;29;19911;-81
2023/05/05 07:11:51;;;;;;;;;;;20.30;99.90;;;;;;4938814;29;19962;-78
2023/05/05 07:14:16;;;;;;;;;;;19.90;99.90;;;;;;4921559;29;19918;-77
2023/05/05 07:16:42;;;;;;;;;;;19.40;99.90;;;;;;4938587;29;20287;-76
2023/05/05 07:19:07;;;;;;;;;;;19.40;99.90;;;;;;4938894;29;19911;-75
2023/05/05 07:21:33;;;;;;;;;;;19.50;99.90;;;;;;4938551;29;19946;-76
2023/05/05 07:23:59;;;;;;;;;;;19.10;99.90;;;;;;4938503;29;19982;-82
2023/05/05 07:26:25;;;;;;;;;;;18.80;99.90;;;;;;4939894;29;19915;-78
2023/05/05 07:28:51;;;;;;;;;;;18.50;99.90;;;;;;4939664;29;19918;-76
2023/05/05 07:31:18;;;;;;;;;;;18.20;99.90;;;;;;4939509;29;20279;-78
2023/05/05 07:33:44;;;;;;;;;;;18.30;99.90;;;;;;4938191;29;19914;-76
2023/05/05 07:36:10;;;;;;;;;;;18.80;99.90;;;;;;4921736;29;20023;-76
2023/05/05 07:38:35;;;;;;;;;;;19.30;99.90;;;;;;4937637;29;19911;-76
2023/05/05 07:41:01;;;;;;;;;;;19.30;99.90;;;;;;4938168;29;19933;-77
2023/05/05 07:43:27;;;;;;;;;;;18.70;99.90;;;;;;4921121;29;19911;-82
2023/05/05 07:45:52;;;;;;;;;;;18.00;99.90;;;;;;4920968;29;19922;-77
2023/05/05 07:48:18;;;;;;;;;;;17.90;99.90;;;;;;4937961;29;20002;-76
2023/05/05 07:50:43;;;;;;;;;;;17.70;99.90;;;;;;4920944;29;20005;-77
2023/05/05 07:53:09;;;;;;;;;;;18.10;99.90;;;;;;4937875;29;20468;-77
2023/05/05 07:55:35;;;;;;;;;;;19.10;99.90;;;;;;4937662;29;19926;-77
2023/05/05 07:58:02;;;;;;;;;;;19.20;99.90;;;;;;4920744;29;19911;-76
2023/05/05 08:00:28;;;;;;;;;;;19.90;99.90;;;;;;4938091;29;19946;-76
2023/05/05 08:02:54;;;;;;;;;;;19.40;99.90;;;;;;4937805;29;20439;-78
2023/05/05 08:05:19;;;;;;;;;;;18.30;99.90;;;;;;4920815;29;20022;-75
2023/05/05 08:07:45;;;;;;;;;;;17.60;99.90;;;;;;4937745;29;20375;-75
2023/05/05 08:10:11;;;;;;;;;;;17.10;99.90;;;;;;4937443;29;20058;-79
2023/05/05 08:12:37;;;;;;;;;;;16.80;99.90;;;;;;4937579;29;19911;-77
2023/05/05 08:15:04;;;;;;;;;;;16.70;99.90;;;;;;4937628;29;20406;-75
2023/05/05 08:17:29;;;;;;;;;;;16.80;99.90;;;;;;4937562;29;19915;-76
2023/05/05 08:19:55;;;;;;;;;;;17.70;99.90;;;;;;4937343;29;19911;-75
2023/05/05 08:22:21;;;;;;;;;;;18.40;99.90;;;;;;4937443;29;19963;-76
2023/05/05 08:24:46;;;;;;;;;;;18.70;99.90;;;;;;4920266;29;19911;-77
2023/05/05 08:27:12;;;;;;;;;;;19.10;99.90;;;;;;4937256;29;19970;-76
2023/05/05 08:29:38;;;;;;;;;;;19.40;99.90;;;;;;4937875;29;20424;-76
2023/05/05 08:32:04;;;;;;;;;;;18.40;99.90;;;;;;4937689;29;19911;-76
2023/05/05 08:34:29;;;;;;;;;;;17.60;99.90;;;;;;4937613;29;19910;-77
2023/05/05 08:36:55;;;;;;;;;;;17.60;99.90;;;;;;4938070;29;19915;-75
2023/05/05 08:39:21;;;;;;;;;;;17.70;99.90;;;;;;4937477;29;20340;-78
2023/05/05 08:41:46;;;;;;;;;;;17.90;99.90;;;;;;4937619;29;20287;-78
2023/05/05 08:44:12;;;;;;;;;;;18.40;99.90;;;;;;4937800;29;20376;-79
2023/05/05 08:46:38;;;;;;;;;;;19.10;99.90;;;;;;4937178;29;19922;-78
2023/05/05 08:49:04;;;;;;;;;;;19.20;99.90;;;;;;4937159;29;19915;-77
2023/05/05 08:51:37;;;;;;;;;;;18.90;99.90;;;;;;4936769;29;19911;-80
2023/05/05 08:54:04;;;;;;;;;;;18.80;99.90;;;;;;4937180;29;19946;-77
2023/05/05 08:56:33;;;;;;;;;;;19.30;99.90;;;;;;4937063;29;19915;-76
2023/05/05 08:59:00;;;;;;;;;;;19.30;99.90;;;;;;4936891;29;20375;-76
2023/05/05 09:01:26;;;;;;;;;;;20.30;99.90;;;;;;4936833;29;19910;-78
2023/05/05 09:03:52;;;;;;;;;;;22.40;99.90;;;;;;4937010;29;19910;-78
2023/05/05 09:06:19;;;;;;;;;;;22.70;99.90;;;;;;4936646;29;19965;-79
2023/05/05 09:08:45;;;;;;;;;;;21.10;99.90;;;;;;4936644;29;19918;-79
2023/05/05 09:11:10;;;;;;;;;;;21.20;99.90;;;;;;4936582;29;20283;-79
2023/05/05 09:13:36;;;;;;;;;;;20.90;99.90;;;;;;4936708;29;20377;-79
2023/05/05 09:16:01;;;;;;;;;;;19.40;99.90;;;;;;4919454;29;19915;-78
2023/05/05 09:18:27;;;;;;;;;;;18.70;99.90;;;;;;4936561;29;20372;-78
2023/05/05 09:20:53;;;;;;;;;;;;;;;;;;4936632;29;19949;-78
2023/05/05 09:23:19;;;;;;;;;;;;;;;;;;4936596;29;19915;-72
2023/05/05 09:25:45;;;;;;;;;;;;;;;;;;4936431;29;19914;-71
2023/05/05 09:28:11;;;;;;;;;;;;;;;;;;4919407;29;19911;-70
2023/05/05 09:30:37;;;;;;;;;;;;;;;;;;4936442;29;19911;-71
2023/05/05 09:33:03;;;;;;;;;;;;;;;;;;4936593;29;19957;-72
2023/05/05 09:35:29;;;;;;;;;;;;;;;;;;4936420;29;20294;-72
2023/05/05 09:37:55;;;;;;;;;;;;;;;;;;4936930;29;19914;-70
2023/05/05 09:40:21;;;;;;;;;;;;;;;;;;4936623;29;19917;-72
2023/05/05 09:42:47;;;;;;;;;;;;;;;;;;4936330;29;19911;-72
2023/05/05 09:45:13;;;;;;;;;;;;;;;;;;4936394;29;19917;-71
2023/05/05 09:47:39;;;;;;;;;;;;;;;;;;4936269;29;20018;-69
2023/05/05 09:50:05;;;;;;;;;;;;;;;;;;4936264;29;19911;-69
2023/05/05 09:52:31;;;;;;;;;;;;;;;;;;4936628;29;19911;-71
2023/05/05 09:54:57;;;;;;;;;;;;;;;;;;4935985;29;20009;-73
2023/05/05 09:57:23;;;;;;;;;;;;;;;;;;4936182;29;20343;-71
2023/05/05 09:59:49;;;;;;;;;;;;;;;;;;4936301;29;19915;-72
2023/05/05 10:02:15;;;;;;;;;;;;;;;;;;4937315;29;20291;-70
2023/05/05 10:04:41;;;;;;;;;;;;;;;;;;4940025;29;19965;-69
2023/05/05 10:07:07;;;;;;;;;;;;;;;;;;4939817;29;20400;-75
2023/05/05 10:09:33;;;;;;;;;;;;;;;;;;4939956;29;20405;-71
2023/05/05 10:12:00;;;;;;;;;;;;;;;;;;4939743;29;20066;-72
2023/05/05 10:14:26;;;;;;;;;;;;;;;;;;4939879;29;20339;-72
2023/05/05 10:16:52;;;;;;;;;;;;;;;;;;4939700;29;19918;-71
2023/05/05 10:19:18;;;;;;;;;;;;;;;;;;4939478;29;19926;-71
2023/05/05 10:21:44;;;;;;;;;;;;;;;;;;4939575;29;19934;-71
2023/05/05 10:24:10;;;;;;;;;;;;;;;;;;4939909;29;19918;-72
2023/05/05 10:26:36;;;;;;;;;;;;;;;;;;4939503;29;20009;-72
2023/05/05 10:29:02;;;;;;;;;;;;;;;;;;4939488;29;19962;-72
2023/05/05 10:31:29;;;;;;;;;;;;;;;;;;4939438;29;19962;-70
2023/05/05 10:33:55;;;;;;;;;;;;;;;;;;4939574;29;19946;-69
2023/05/05 10:36:21;;;;;;;;;;;;;;;;;;4939875;29;19911;-71
2023/05/05 10:38:47;;;;;;;;;;;;;;;;;;4939127;29;19911;-69
2023/05/05 10:41:13;;;;;;;;;;;;;;;;;;4939263;29;19911;-72
2023/05/05 10:43:39;;;;;;;;;;;;;;;;;;4939226;29;20291;-71
2023/05/05 10:46:05;;;;;;;;;;;;;;;;;;4939480;29;19922;-72
2023/05/05 10:48:30;;;;;;;;;;;;;;;;;;4939299;29;20282;-70
2023/05/05 10:50:56;;;;;;;;;;;;;;;;;;4939108;29;19910;-71
2023/05/05 10:53:22;;;;;;;;;;;;;;;;;;4939047;29;19918;-73
2023/05/05 10:55:48;;;;;;;;;;;;;;;;;;4938614;29;19926;-72
2023/05/05 10:58:14;;;;;;;;;;;;;;;;;;4939147;29;19911;-71
2023/05/05 11:00:40;;;;;;;;;;;;;;;;;;4938963;29;20309;-72
2023/05/05 11:03:06;;;;;;;;;;;;;;;;;;4938938;29;20390;-72
2023/05/05 11:05:32;;;;;;;;;;;;;;;;;;4939005;29;19919;-70
2023/05/05 11:07:58;;;;;;;;;;;;;;;;;;4938813;29;20368;-70
2023/05/05 11:10:25;;;;;;;;;;;;;;;;;;4938791;29;19911;-71
2023/05/05 11:12:51;;;;;;;;;;;;;;;;;;4938718;29;19910;-72
2023/05/05 11:15:17;;;;;;;;;;;;;;;;;;4938678;29;19911;-72
2023/05/05 11:17:42;;;;;;;;;;;;;;;;;;4938946;29;20443;-72
2023/05/05 11:20:08;;;;;;;;;;;;;;;;;;4938528;29;20360;-72
2023/05/05 11:22:34;;;;;;;;;;;;;;;;;;4938527;29;19965;-69
2023/05/05 11:25:00;;;;;;;;;;;;;;;;;;4938471;29;19915;-71
2023/05/05 11:27:26;;;;;;;;;;;;;;;;;;4938481;29;20055;-73
2023/05/05 11:29:52;;;;;;;;;;;;;;;;;;4938409;29;19970;-72
2023/05/05 11:32:18;;;;;;;;;;;;;;;;;;4938664;29;20363;-71
2023/05/05 11:34:44;;;;;;;;;;;;;;;;;;4938321;29;20399;-71
2023/05/05 11:37:10;;;;;;;;;;;;;;;;;;4938798;29;19911;-71
2023/05/05 11:39:36;;;;;;;;;;;;;;;;;;4938392;29;19911;-73
2023/05/05 11:42:02;;;;;;;;;;;;;;;;;;4938401;29;20423;-71
2023/05/05 11:44:28;;;;;;;;;;;;;;;;;;4938305;29;20348;-73
2023/05/05 11:46:54;;;;;;;;;;;;;;;;;;4938011;29;19915;-74
2023/05/05 11:49:20;;;;;;;;;;;;;;;;;;4938561;29;19911;-71
2023/05/05 11:51:46;;;;;;;;;;;;;;;;;;4938205;29;19911;-74
2023/05/05 11:54:12;;;;;;;;;;;;;;;;;;4937824;29;20002;-72
2023/05/05 11:56:38;;;;;;;;;;;;;;;;;;4938209;29;20371;-72
2023/05/05 11:59:04;;;;;;;;;;;;;;;;;;4937887;29;19967;-71
2023/05/05 12:01:30;;;;;;;;;;;;;;;;;;4937900;29;19922;-74
2023/05/05 12:03:56;;;;;;;;;;;;;;;;;;4937782;29;20430;-73
2023/05/05 12:06:21;;;;;;;;;;;;;;;;;;4937779;29;19919;-71
2023/05/05 12:08:47;;;;;;;;;;;20.10;99.90;;;;;;4937705;29;20415;-73
2023/05/05 12:11:13;;;;;;;;;;;19.50;99.90;;;;;;4937647;29;19911;-71
2023/05/05 12:13:38;;;;;;;;;;;20.50;99.90;;;;;;4937562;29;19914;-71
2023/05/05 12:16:08;;;;;;;;;;;22.70;99.90;;;;;;4937772;29;19918;-70
2023/05/05 12:18:34;;;;;;;;;;;23.80;99.90;;;;;;4937530;29;19910;-71
2023/05/05 12:20:59;;;;;;;;;;;26.80;99.90;;;;;;4937503;29;19915;-71
2023/05/05 12:23:28;;;;;;;;;;;26.00;99.90;;;;;;4937408;29;19917;-74
2023/05/05 12:25:54;;;;;;;;;;;27.30;99.90;;;;;;4937055;29;19922;-75
2023/05/05 12:28:20;;;;;;;;;;;25.80;99.90;;;;;;4937342;29;20001;-73
2023/05/05 12:30:58;;;;;;;;;;;26.70;99.90;;;;;;4937265;29;20439;-74
2023/05/05 12:33:24;;;;;;;;;;;24.50;99.90;;;;;;4937188;29;20367;-73
2023/05/05 12:35:50;;;;;;;;;;;22.60;99.90;;;;;;4937171;29;19921;-73
2023/05/05 12:38:15;;;;;;;;;;;21.30;99.90;;;;;;4937722;29;19965;-75
2023/05/05 12:40:42;;;;;;;;;;;21.80;99.90;;;;;;4937586;29;19918;-72
2023/05/05 12:43:08;;;;;;;;;;;23.90;99.90;;;;;;4937480;29;19912;-72
2023/05/05 12:45:33;;;;;;;;;;;24.30;99.90;;;;;;4937161;29;19938;-71
2023/05/05 12:47:59;;;;;;;;;;;23.30;99.90;;;;;;4937104;29;19937;-72
2023/05/05 12:50:31;;;;;;;;;;;21.90;99.90;;;;;;4936958;29;19967;-73
2023/05/05 12:52:56;;;;;;;;;;;21.10;99.90;;;;;;4936772;29;19943;-71
2023/05/05 12:55:36;;;;;;;;;;;21.00;99.90;;;;;;4936931;29;19975;-71
2023/05/05 12:58:03;;;;;;;;;;;21.30;99.90;;;;;;4936920;29;20022;-72
2023/05/05 13:00:28;;;;;;;;;;;23.80;99.90;;;;;;4936785;29;19910;-73
2023/05/05 13:02:55;;;;;;;;;;;24.30;99.90;;;;;;4936794;29;20295;-73
2023/05/05 13:05:31;;;;;;;;;;;23.70;99.90;;;;;;4919573;29;20402;-72
2023/05/05 13:07:57;;;;;;;;;;;23.30;99.90;;;;;;4936626;29;19967;-73
2023/05/05 13:10:23;;;;;;;;;;;26.50;99.90;;;;;;4936683;29;19911;-73
2023/05/05 13:12:50;;;;;;;;;;;26.90;99.90;;;;;;4936711;29;19915;-74
2023/05/05 13:15:16;;;;;;;;;;;25.70;99.90;;;;;;4936613;29;19917;-71
2023/05/05 13:17:41;;;;;;;;;;;24.20;99.90;;;;;;4936618;29;19958;-74
2023/05/05 13:20:08;;;;;;;;;;;24.10;99.90;;;;;;4936549;29;19911;-72
2023/05/05 13:22:35;;;;;;;;;;;24.90;99.90;;;;;;4919567;29;19950;-73
2023/05/05 13:25:00;;;;;;;;;;;24.90;99.90;;;;;;4936525;29;19911;-72
2023/05/05 13:27:26;;;;;;;;;;;24.30;99.90;;;;;;4936469;29;19915;-71
2023/05/05 13:29:51;;;;;;;;;;;24.20;99.90;;;;;;4936655;29;19938;-71
2023/05/05 13:32:17;;;;;;;;;;;24.60;99.90;;;;;;4936677;29;19911;-76
2023/05/05 13:34:43;;;;;;;;;;;24.10;99.90;;;;;;4936517;29;19911;-71
2023/05/05 13:37:08;;;;;;;;;;;23.40;99.90;;;;;;4938504;29;19915;-72
2023/05/05 13:39:34;;;;;;;;;;;23.00;99.90;;;;;;4940852;29;20431;-73
2023/05/05 13:42:00;;;;;;;;;;;21.90;99.90;;;;;;4940373;29;19917;-72
2023/05/05 13:44:25;;;;;;;;;;;21.10;99.90;;;;;;4940307;29;20414;-71
2023/05/05 13:46:51;;;;;;;;;;;20.70;99.90;;;;;;4940316;29;20013;-73
2023/05/05 13:49:16;;;;;;;;;;;21.20;99.90;;;;;;4940239;29;19911;-73
2023/05/05 13:51:42;;;;;;;;;;;22.10;99.90;;;;;;4940357;29;19917;-74
2023/05/05 13:54:08;;;;;;;;;;;22.50;99.90;;;;;;4939928;29;20279;-76
2023/05/05 13:56:34;;;;;;;;;;;22.60;99.90;;;;;;4940217;29;19998;-71
2023/05/05 13:59:00;;;;;;;;;;;21.90;99.90;;;;;;4940193;29;20379;-71
2023/05/05 14:01:25;;;;;;;;;;;21.70;99.90;;;;;;4940050;29;19915;-71
2023/05/05 14:03:51;;;;;;;;;;;21.60;99.90;;;;;;4939819;29;19911;-71
2023/05/05 14:06:17;;;;;;;;;;;21.60;99.90;;;;;;4939895;29;19922;-74
2023/05/05 14:08:42;;;;;;;;;;;21.60;99.90;;;;;;4940442;29;19910;-72
2023/05/05 14:11:08;;;;;;;;;;;21.50;99.90;;;;;;4939795;29;20260;-72
2023/05/05 14:13:33;;;;;;;;;;;21.30;99.90;;;;;;4939841;29;19911;-73
2023/05/05 14:15:59;;;;;;;;;;;21.00;99.90;;;;;;4939747;29;20348;-72
2023/05/05 14:18:24;;;;;;;;;;;20.70;99.90;;;;;;4939731;29;19911;-71
2023/05/05 14:20:50;;;;;;;;;;;20.90;99.90;;;;;;4939741;29;19959;-73
2023/05/05 14:23:15;;;;;;;;;;;20.90;99.90;;;;;;4939944;29;20360;-74
2023/05/05 14:25:41;;;;;;;;;;;20.70;99.90;;;;;;4939622;29;19967;-72
2023/05/05 14:28:07;;;;;;;;;;;20.50;99.90;;;;;;4939561;29;19946;-74
2023/05/05 14:30:32;;;;;;;;;;;20.10;99.90;;;;;;4939492;29;19963;-72
2023/05/05 14:32:58;;;;;;;;;;;19.90;99.90;;;;;;4939400;29;19954;-70
2023/05/05 14:35:23;;;;;;;;;;;19.70;99.90;;;;;;4939494;29;20431;-72
2023/05/05 14:37:49;;;;;;;;;;;19.00;99.90;;;;;;4939934;29;19954;-72